Time;durP1;ratioP1;P1;durP2;ratioP2;P2;SDS_P1;SDS_P2;PMS_P1;PMS_P2;Temp;Humidity;BMP_temperature;BMP_pressure;BME280_temperature;BME280_humidity;BME280_pressure;Samples;Min_cycle;Max_cycle;Signal;HPM_P1;HPM_P2
2022/08/07 00:01:57;;;;;;;2.88;1.25;;;;;;;8.83;100.00;102017.63;5024071;28;20037;-50
2022/08/07 00:04:23;;;;;;;2.42;1.65;;;;;;;8.82;100.00;102024.72;5024696;28;20029;-49
2022/08/07 00:06:48;;;;;;;4.90;1.63;;;;;;;8.80;100.00;102020.56;5019847;28;20109;-54
2022/08/07 00:09:13;;;;;;;3.33;1.27;;;;;;;8.66;100.00;102019.19;5030689;28;20086;-52
2022/08/07 00:11:39;;;;;;;1.77;1.45;;;;;;;8.52;100.00;102017.81;5029169;28;20046;-53
2022/08/07 00:14:04;;;;;;;2.95;1.77;;;;;;;8.41;100.00;102024.06;5033358;28;20040;-50
2022/08/07 00:16:29;;;;;;;2.20;1.58;;;;;;;8.33;100.00;102018.59;5029882;28;20440;-52
2022/08/07 00:18:55;;;;;;;4.45;1.25;;;;;;;8.28;100.00;102010.25;5026936;28;20316;-54
2022/08/07 00:21:20;;;;;;;2.38;1.10;;;;;;;8.28;100.00;102007.63;5029280;28;20108;-51
2022/08/07 00:23:46;;;;;;;3.78;1.20;;;;;;;8.29;100.00;102011.94;5020248;28;20033;-48
2022/08/07 00:26:11;;;;;;;4.22;1.85;;;;;;;8.20;100.00;102012.78;5027653;28;20039;-49
2022/08/07 00:28:37;;;;;;;2.85;1.30;;;;;;;8.14;100.00;102013.31;5026888;28;20056;-51
2022/08/07 00:31:06;;;;;;;4.35;1.75;;;;;;;8.08;100.00;102007.63;5026341;28;20319;-50
2022/08/07 00:33:36;;;;;;;1.85;1.55;;;;;;;8.08;100.00;102006.78;5016985;28;20030;-51
2022/08/07 00:36:03;;;;;;;2.80;1.73;;;;;;;8.10;100.00;102010.09;5022497;28;20727;-50
2022/08/07 00:38:29;;;;;;;2.78;2.03;;;;;;;8.12;100.00;102009.97;5027016;28;20044;-50
2022/08/07 00:40:54;;;;;;;2.88;0.93;;;;;;;8.14;100.00;102010.69;5022889;28;20017;-51
2022/08/07 00:43:19;;;;;;;2.53;1.70;;;;;;;8.15;100.00;102005.25;5017354;28;20090;-53
2022/08/07 00:45:45;;;;;;;1.95;1.63;;;;;;;8.23;100.00;102001.91;5021128;28;20379;-51
2022/08/07 00:48:10;;;;;;;3.30;1.50;;;;;;;8.22;100.00;102008.19;5016275;28;20036;-51
2022/08/07 00:50:37;;;;;;;2.10;1.88;;;;;;;8.15;100.00;102015.81;5032549;28;20032;-50
2022/08/07 00:53:03;;;;;;;3.78;2.10;;;;;;;8.07;100.00;102005.94;5029989;28;20057;-50
2022/08/07 00:55:29;;;;;;;1.63;1.30;;;;;;;8.02;100.00;102002.88;5023147;28;20113;-50
2022/08/07 00:57:54;;;;;;;2.20;1.77;;;;;;;8.05;100.00;101999.97;5019083;28;20029;-50
2022/08/07 01:00:21;;;;;;;4.30;1.13;;;;;;;8.10;100.00;102007.47;5015700;28;20021;-51
2022/08/07 01:02:47;;;;;;;2.40;1.40;;;;;;;8.07;100.00;102005.09;5016920;28;20368;-47
2022/08/07 01:05:13;;;;;;;3.92;1.08;;;;;;;8.13;100.00;102001.06;5018473;28;20317;-50
2022/08/07 01:07:39;;;;;;;4.38;1.92;;;;;;;8.15;100.00;101999.13;5024461;28;20033;-53
2022/08/07 01:10:07;;;;;;;5.20;1.65;;;;;;;8.09;100.00;102004.00;5023905;28;20368;-50
2022/08/07 01:12:33;;;;;;;3.85;1.10;;;;;;;8.09;100.00;101998.72;5021969;28;20113;-48
2022/08/07 01:15:00;;;;;;;8.63;2.78;;;;;;;8.05;100.00;101994.69;5027360;28;20090;-54
2022/08/07 01:17:26;;;;;;;2.85;1.77;;;;;;;7.95;100.00;101998.25;5026342;28;20081;-47
2022/08/07 01:19:54;;;;;;;1.17;1.05;;;;;;;7.77;100.00;101998.09;5023772;28;20483;-48
2022/08/07 01:22:21;;;;;;;2.03;1.77;;;;;;;7.66;100.00;102004.31;5027715;28;20485;-53
2022/08/07 01:24:47;;;;;;;3.60;1.65;;;;;;;7.64;100.00;102006.25;5025841;28;20034;-47
2022/08/07 01:27:13;;;;;;;3.35;1.55;;;;;;;7.64;100.00;101999.19;5025317;28;20071;-49
2022/08/07 01:29:38;;;;;;;1.88;1.48;;;;;;;7.69;100.00;102008.50;5023164;28;20029;-47
2022/08/07 01:32:04;;;;;;;2.78;1.77;;;;;;;7.67;100.00;102011.28;5021044;28;20435;-48
2022/08/07 01:34:31;;;;;;;5.95;1.70;;;;;;;7.61;100.00;102003.88;5026091;28;20422;-49
2022/08/07 01:36:57;;;;;;;2.70;1.55;;;;;;;7.58;100.00;102010.28;5027744;28;20025;-47
2022/08/07 01:39:22;;;;;;;1.30;1.05;;;;;;;7.52;100.00;102016.09;5024357;28;20017;-52
2022/08/07 01:41:48;;;;;;;1.50;1.40;;;;;;;7.47;100.00;102009.56;5034070;28;20037;-53
2022/08/07 01:44:14;;;;;;;3.10;1.38;;;;;;;7.45;100.00;102001.75;5033562;28;20021;-50
2022/08/07 01:46:40;;;;;;;1.60;0.95;;;;;;;7.48;100.00;102006.75;5027775;28;20036;-49
2022/08/07 01:49:06;;;;;;;1.90;1.13;;;;;;;7.49;100.00;102003.16;5020781;28;20038;-51
2022/08/07 01:51:32;;;;;;;0.80;0.80;;;;;;;7.51;100.00;102001.25;5026995;28;20560;-49
2022/08/07 01:54:01;;;;;;;2.00;1.15;;;;;;;7.50;100.00;102002.19;5027652;28;20037;-50
2022/08/07 01:56:32;;;;;;;1.38;0.95;;;;;;;7.46;100.00;102003.44;5027840;28;20530;-54
2022/08/07 01:59:05;;;;;;;8.38;1.95;;;;;;;7.41;100.00;102005.66;5023435;28;20037;-48
2022/08/07 02:01:44;;;;;;;3.20;1.55;;;;;;;7.37;100.00;102010.34;5023338;28;20612;-51
2022/08/07 02:04:16;;;;;;;1.08;0.85;;;;;;;7.34;100.00;102007.13;5024450;28;20041;-47
2022/08/07 02:06:43;;;;;;;3.00;1.65;;;;;;;7.28;100.00;102010.28;5022982;28;20064;-47
2022/08/07 02:09:10;;;;;;;3.05;1.70;;;;;;;7.22;100.00;102007.22;5020999;28;20560;-47
2022/08/07 02:11:40;;;;;;;2.42;1.83;;;;;;;7.21;100.00;102015.28;5027425;28;20046;-48
2022/08/07 02:14:07;;;;;;;2.10;1.20;;;;;;;7.21;100.00;102010.00;5026585;28;20502;-52
2022/08/07 02:16:36;;;;;;;1.17;1.02;;;;;;;7.20;100.00;102010.94;5023003;28;20033;-50
2022/08/07 02:19:05;;;;;;;2.45;1.95;;;;;;;7.18;100.00;102021.66;5026926;28;20032;-49
2022/08/07 02:21:34;;;;;;;1.92;1.50;;;;;;;7.15;100.00;102005.22;5025715;28;20091;-49
2022/08/07 02:24:00;;;;;;;3.25;1.35;;;;;;;7.12;100.00;102011.59;5030700;28;20156;-47
2022/08/07 02:26:26;;;;;;;3.33;1.85;;;;;;;7.10;100.00;102012.69;5025514;28;20034;-48
2022/08/07 02:28:53;;;;;;;3.65;1.38;;;;;;;7.07;100.00;102012.97;5023912;28;20421;-50
2022/08/07 02:31:21;;;;;;;1.65;1.30;;;;;;;7.00;100.00;102007.41;5031811;28;20119;-49
2022/08/07 02:33:48;;;;;;;1.52;1.27;;;;;;;6.94;100.00;102014.03;5018615;28;20482;-48
2022/08/07 02:36:15;;;;;;;2.40;1.70;;;;;;;6.91;100.00;102010.78;5024646;28;20063;-48
2022/08/07 02:38:41;;;;;;;1.30;1.17;;;;;;;6.86;100.00;102011.19;5020029;28;20793;-48
2022/08/07 02:41:07;;;;;;;5.05;2.55;;;;;;;6.86;100.00;102010.34;5025965;28;20033;-50
2022/08/07 02:43:35;;;;;;;4.45;2.97;;;;;;;6.85;100.00;102006.88;5025513;28;20136;-53
2022/08/07 02:46:03;;;;;;;5.57;1.67;;;;;;;6.87;100.00;102012.03;5025399;28;20065;-49
2022/08/07 02:48:29;;;;;;;0.75;0.73;;;;;;;6.84;100.00;102012.28;5024708;28;20044;-52
2022/08/07 02:50:56;;;;;;;1.90;0.98;;;;;;;6.86;100.00;102002.44;5026495;28;20022;-52
2022/08/07 02:53:25;;;;;;;1.60;1.35;;;;;;;6.85;100.00;102009.53;5027819;28;20045;-53
2022/08/07 02:55:52;;;;;;;4.47;1.50;;;;;;;6.84;100.00;102007.84;5021989;28;20017;-49
2022/08/07 02:58:19;;;;;;;6.10;1.92;;;;;;;6.84;100.00;102009.63;5021355;28;20029;-49
2022/08/07 03:00:48;;;;;;;2.67;1.23;;;;;;;6.83;100.00;102015.88;5019988;28;20034;-47
2022/08/07 03:03:15;;;;;;;1.17;1.10;;;;;;;6.80;100.00;102018.78;5028350;28;20056;-52
2022/08/07 03:05:41;;;;;;;1.40;1.30;;;;;;;6.80;100.00;102018.78;5022683;28;20100;-51
2022/08/07 03:08:07;;;;;;;2.03;1.83;;;;;;;6.80;100.00;102021.41;5025188;28;20152;-49
2022/08/07 03:10:34;;;;;;;2.10;1.65;;;;;;;6.80;100.00;102016.16;5024798;28;20512;-48
2022/08/07 03:13:01;;;;;;;3.63;1.27;;;;;;;6.77;100.00;102018.06;5024099;28;20029;-50
2022/08/07 03:15:27;;;;;;;2.88;1.70;;;;;;;6.70;100.00;102016.91;5026617;28;20037;-48
2022/08/07 03:17:53;;;;;;;1.85;0.98;;;;;;;6.63;100.00;102021.00;5030439;28;20030;-49
2022/08/07 03:20:18;;;;;;;2.33;2.20;;;;;;;6.55;100.00;102019.00;5033396;28;20406;-50
2022/08/07 03:22:46;;;;;;;0.98;0.85;;;;;;;6.51;100.00;102022.03;5030913;28;20025;-48
2022/08/07 03:25:11;;;;;;;2.22;1.98;;;;;;;6.49;100.00;102019.53;5030675;28;20036;-49
2022/08/07 03:27:39;;;;;;;1.60;1.50;;;;;;;6.46;100.00;102014.50;5028664;28;20025;-52
2022/08/07 03:30:05;;;;;;;1.55;1.48;;;;;;;6.42;100.00;102020.97;5024675;28;20033;-53
2022/08/07 03:32:38;;;;;;;1.50;1.23;;;;;;;6.41;100.00;102026.41;5025406;28;20400;-50
2022/08/07 03:35:09;;;;;;;2.55;1.42;;;;;;;6.36;100.00;102018.88;5031215;28;20390;-49
2022/08/07 03:37:36;;;;;;;1.60;1.48;;;;;;;6.33;100.00;102022.59;5030587;28;20048;-54
2022/08/07 03:40:03;;;;;;;5.18;1.63;;;;;;;6.37;100.00;102019.69;5029739;28;20144;-50
2022/08/07 03:42:31;;;;;;;3.80;1.98;;;;;;;6.39;100.00;102013.34;5022287;28;20026;-53
2022/08/07 03:44:56;;;;;;;2.55;1.70;;;;;;;6.40;100.00;102016.81;5018130;28;20037;-50
2022/08/07 03:47:22;;;;;;;2.55;2.30;;;;;;;6.40;100.00;102014.16;5029245;28;20079;-53
2022/08/07 03:49:47;;;;;;;2.65;1.88;;;;;;;6.37;100.00;102017.91;5026990;28;20052;-50
2022/08/07 03:52:16;;;;;;;3.75;1.60;;;;;;;6.34;100.00;102016.34;5026341;28;20032;-48
2022/08/07 03:54:41;;;;;;;1.35;1.00;;;;;;;6.36;100.00;102013.59;5023899;28;20471;-53
2022/08/07 03:57:08;;;;;;;1.80;1.70;;;;;;;6.35;100.00;102006.66;5021306;28;20044;-52
2022/08/07 03:59:33;;;;;;;2.53;1.40;;;;;;;6.32;100.00;102007.75;5030995;28;20021;-53
2022/08/07 04:02:00;;;;;;;1.92;1.50;;;;;;;6.28;100.00;102008.97;5025318;28;20565;-51
2022/08/07 04:04:25;;;;;;;2.63;1.58;;;;;;;6.25;100.00;102006.59;5030477;28;20029;-49
2022/08/07 04:06:51;;;;;;;2.20;1.85;;;;;;;6.18;100.00;102008.03;5024312;28;20566;-48
2022/08/07 04:09:18;;;;;;;1.58;1.13;;;;;;;6.12;100.00;102011.19;5029627;28;20072;-51
2022/08/07 04:11:44;;;;;;;8.52;1.70;;;;;;;6.07;100.00;102014.19;5026372;28;20092;-49
2022/08/07 04:14:11;;;;;;;2.22;1.70;;;;;;;6.03;100.00;102009.28;5026568;28;20147;-48
2022/08/07 04:16:37;;;;;;;2.42;1.80;;;;;;;5.98;100.00;102011.44;5024982;28;20034;-51
2022/08/07 04:19:03;;;;;;;2.67;1.40;;;;;;;5.94;100.00;102015.28;5027196;28;20086;-52
2022/08/07 04:21:28;;;;;;;3.85;1.42;;;;;;;5.95;100.00;102014.31;5026866;28;20026;-51
2022/08/07 04:23:55;;;;;;;2.47;1.38;;;;;;;5.95;100.00;102015.16;5028560;28;20033;-50
2022/08/07 04:26:20;;;;;;;1.42;1.33;;;;;;;5.98;100.00;102009.63;5021881;28;20482;-51
2022/08/07 04:28:45;;;;;;;2.83;1.13;;;;;;;5.98;100.00;102007.00;5028875;28;20048;-48
2022/08/07 04:31:11;;;;;;;2.78;1.67;;;;;;;5.96;100.00;102008.09;5027913;28;20079;-52
2022/08/07 04:33:38;;;;;;;1.77;1.35;;;;;;;5.92;100.00;102001.38;5026246;28;20040;-51
2022/08/07 04:36:07;;;;;;;1.95;1.85;;;;;;;5.89;100.00;101997.19;5031231;28;20084;-52
2022/08/07 04:38:33;;;;;;;4.72;1.63;;;;;;;5.86;100.00;102006.19;5021403;28;20465;-51
2022/08/07 04:40:59;;;;;;;2.40;1.52;;;;;;;5.84;100.00;102004.63;5025274;28;20502;-49
2022/08/07 04:43:29;;;;;;;2.80;1.20;;;;;;;5.80;100.00;102011.09;5018932;28;20522;-54
2022/08/07 04:46:14;;;;;;;4.00;1.67;;;;;;;5.79;100.00;101999.72;5029131;28;20017;-52
2022/08/07 04:49:02;;;;;;;2.63;1.17;;;;;;;5.88;100.00;102011.31;5026464;28;20053;-48
2022/08/07 04:51:47;;;;;;;2.85;1.30;;;;;;;5.96;100.00;102014.19;5023800;28;20058;-47
2022/08/07 04:54:31;;;;;;;1.58;1.35;;;;;;;5.99;100.00;102011.34;5026423;28;20037;-53
2022/08/07 04:57:14;;;;;;;3.38;1.30;;;;;;;5.99;100.00;102011.34;5025513;28;20041;-48
2022/08/07 04:59:49;;;;;;;3.20;0.93;;;;;;;6.02;100.00;102007.63;5025392;28;20033;-49
2022/08/07 05:02:23;;;;;;;0.73;0.73;;;;;;;6.01;100.00;102011.19;5023892;28;20041;-49
2022/08/07 05:05:04;;;;;;;1.92;1.75;;;;;;;5.99;100.00;102010.47;5025655;28;20025;-52
2022/08/07 05:07:52;;;;;;;3.67;1.17;;;;;;;5.95;100.00;102012.53;5020373;28;20041;-49
2022/08/07 05:10:28;;;;;;;1.73;1.63;;;;;;;5.95;100.00;102020.44;5027494;28;20103;-53
2022/08/07 05:12:59;;;;;;;3.95;1.48;;;;;;;5.99;100.00;102021.00;5022536;28;20045;-48
2022/08/07 05:15:34;;;;;;;5.72;1.42;;;;;;;6.00;100.00;102018.25;5025152;28;20478;-48
2022/08/07 05:18:08;;;;;;;4.03;1.55;;;;;;;6.01;100.00;102019.09;5026868;28;20033;-53
2022/08/07 05:20:39;;;;;;;2.97;1.52;;;;;;;6.03;100.00;102018.00;5026707;28;20021;-52
2022/08/07 05:23:10;;;;;;;4.95;1.38;;;;;;;6.06;100.00;102022.19;5022239;28;20041;-47
2022/08/07 05:25:36;;;;;;;4.63;2.78;;;;;;;6.04;100.00;102019.69;5023069;28;20041;-48
2022/08/07 05:28:05;;;;;;;3.30;2.50;;;;;;;6.08;100.00;102026.38;5023408;28;20086;-48
2022/08/07 05:30:31;;;;;;;2.83;1.63;;;;;;;6.15;100.00;102024.09;5015889;28;20049;-52
2022/08/07 05:32:58;;;;;;;1.55;1.08;;;;;;;6.24;100.00;102027.75;5023760;28;20017;-48
2022/08/07 05:35:24;;;;;;;1.58;1.17;;;;;;;6.25;100.00;102019.75;5023233;28;20037;-52
2022/08/07 05:37:50;;;;;;;2.78;1.52;;;;;;;6.28;100.00;102022.13;5018782;28;20032;-47
2022/08/07 05:40:16;;;;;;;2.83;1.25;;;;;;;6.34;100.00;102020.78;5025563;28;20037;-48
2022/08/07 05:42:43;;;;;;;3.50;1.70;;;;;;;6.38;100.00;102018.75;5023468;28;20104;-49
2022/08/07 05:45:09;;;;;;;1.52;1.42;;;;;;;6.43;100.00;102029.72;5022501;28;20029;-52
2022/08/07 05:47:35;;;;;;;3.25;1.30;;;;;;;6.55;100.00;102024.28;5021225;28;20087;-52
2022/08/07 05:50:02;;;;;;;2.13;1.70;;;;;;;6.65;100.00;102028.81;5024728;28;20420;-54
2022/08/07 05:52:27;;;;;;;1.75;1.13;;;;;;;6.69;100.00;102031.06;5015106;28;20076;-47
2022/08/07 05:54:53;;;;;;;2.95;0.85;;;;;;;6.77;100.00;102039.16;5025757;28;20435;-53
2022/08/07 05:57:19;;;;;;;2.80;1.30;;;;;;;6.90;100.00;102038.16;5019971;28;20022;-47
2022/08/07 05:59:46;;;;;;;1.80;1.63;;;;;;;7.09;100.00;102048.78;5014996;28;20352;-48
2022/08/07 06:02:15;;;;;;;0.68;0.68;;;;;;;7.20;100.00;102050.50;5023859;28;20400;-50
2022/08/07 06:04:47;;;;;;;3.95;1.45;;;;;;;7.32;100.00;102052.13;5026507;28;20117;-51
2022/08/07 06:07:13;;;;;;;1.10;1.08;;;;;;;7.38;100.00;102058.66;5018562;28;20034;-50
2022/08/07 06:09:39;;;;;;;1.90;1.58;;;;;;;7.42;100.00;102055.63;5028152;28;20107;-52
2022/08/07 06:12:05;;;;;;;2.45;1.33;;;;;;;7.57;100.00;102055.31;5025573;28;20053;-50
2022/08/07 06:14:31;;;;;;;1.95;1.30;;;;;;;7.76;100.00;102065.09;5026339;28;20033;-47
2022/08/07 06:16:57;;;;;;;2.60;1.67;;;;;;;7.91;100.00;102063.75;5020474;28;20032;-51
2022/08/07 06:19:25;;;;;;;1.65;1.40;;;;;;;8.07;100.00;102055.28;5023264;28;20475;-49
2022/08/07 06:21:51;;;;;;;2.30;1.30;;;;;;;8.17;100.00;102050.88;5026925;28;20042;-49
2022/08/07 06:24:17;;;;;;;2.80;1.55;;;;;;;8.25;100.00;102052.81;5027674;28;20080;-52
2022/08/07 06:26:42;;;;;;;2.70;1.35;;;;;;;8.38;100.00;102053.38;5021626;28;20026;-53
2022/08/07 06:29:08;;;;;;;1.75;1.65;;;;;;;8.47;100.00;102046.50;5024161;28;20360;-48
2022/08/07 06:31:34;;;;;;;3.55;1.42;;;;;;;8.63;100.00;102053.84;5024003;28;20040;-51
2022/08/07 06:34:00;;;;;;;2.25;1.15;;;;;;;8.85;100.00;102048.25;5019235;28;20479;-54
2022/08/07 06:36:25;;;;;;;3.70;1.70;;;;;;;9.09;100.00;102046.97;5017907;28;21605;-51
2022/08/07 06:38:53;;;;;;;1.80;0.98;;;;;;;9.30;100.00;102049.44;5021109;28;20017;-47
2022/08/07 06:41:44;;;;;;;3.17;1.08;;;;;;;9.63;100.00;102048.03;5027949;28;20212;-51
2022/08/07 06:44:11;;;;;;;3.30;1.07;;;;;;;9.75;100.00;102056.63;5023447;28;20064;-52
2022/08/07 06:46:36;;;;;;;2.58;0.65;;;;;;;9.89;100.00;102055.31;5025435;28;20271;-54
2022/08/07 06:49:03;;;;;;;1.00;0.52;;;;;;;10.11;100.00;102046.91;5018846;28;20150;-48
2022/08/07 06:51:31;;;;;;;2.40;0.77;;;;;;;10.37;100.00;102044.41;5016991;28;20029;-49
2022/08/07 06:54:02;;;;;;;4.80;1.73;;;;;;;10.62;100.00;102047.28;5027068;28;20033;-55
2022/08/07 06:56:38;;;;;;;4.53;0.47;;;;;;;10.79;100.00;102043.78;5027937;28;20033;-47
2022/08/07 06:59:08;;;;;;;0.43;0.40;;;;;;;11.00;100.00;102043.44;5024896;28;20510;-51
2022/08/07 07:01:35;;;;;;;1.10;0.80;;;;;;;11.25;100.00;102035.59;5025690;28;20041;-55
2022/08/07 07:04:03;;;;;;;2.83;1.92;;;;;;;11.44;100.00;102040.69;5024443;28;20395;-49
2022/08/07 07:06:31;;;;;;;2.13;1.10;;;;;;;11.58;100.00;102034.75;5024874;28;20477;-50
2022/08/07 07:09:15;;;;;;;2.38;0.80;;;;;;;11.76;100.00;102032.00;5018391;28;20057;-52
2022/08/07 07:11:47;;;;;;;2.05;0.52;;;;;;;12.00;100.00;102028.66;5022369;28;20050;-47
2022/08/07 07:14:16;;;;;;;2.03;0.80;;;;;;;12.28;100.00;102022.19;5018339;28;20168;-51
2022/08/07 07:16:44;;;;;;;0.55;0.50;;;;;;;12.55;100.00;102021.06;5023317;28;20033;-50
2022/08/07 07:19:14;;;;;;;0.77;0.40;;;;;;;12.83;100.00;102022.38;5024244;28;20490;-54
2022/08/07 07:21:41;;;;;;;3.85;0.63;;;;;;;13.06;100.00;102022.50;5020943;28;20059;-51
2022/08/07 07:24:09;;;;;;;2.05;1.08;;;;;;;13.31;100.00;102017.94;5017261;28;20038;-49
2022/08/07 07:26:38;;;;;;;0.85;0.40;;;;;;;13.59;100.00;102014.84;5017684;28;20728;-54
2022/08/07 07:29:12;;;;;;;1.60;0.50;;;;;;;13.84;100.00;102017.41;5012702;28;20521;-50
2022/08/07 07:31:42;;;;;;;0.35;0.30;;;;;;;14.12;100.00;102002.56;5016902;28;20040;-53
2022/08/07 07:34:11;;;;;;;1.45;0.20;;;;;;;14.40;100.00;101994.84;5014068;28;20526;-53
2022/08/07 07:36:38;;;;;;;3.60;0.17;;;;;;;14.68;100.00;101988.13;5022443;28;20479;-55
2022/08/07 07:39:04;;;;;;;2.63;0.47;;;;;;;15.07;100.00;101985.22;5025097;28;20112;-49
2022/08/07 07:41:32;;;;;;;3.30;0.95;;;;;;;15.45;100.00;101987.78;5021880;28;20444;-51
2022/08/07 07:44:00;;;;;;;0.80;0.25;;;;;;;15.71;100.00;101979.28;5013366;28;20034;-49
2022/08/07 07:46:29;;;;;;;0.20;0.20;;;;;;;15.96;100.00;101981.63;5014787;28;20064;-52
2022/08/07 07:48:57;;;;;;;0.13;0.10;;;;;;;16.19;100.00;101974.22;5014577;28;20034;-50
2022/08/07 07:51:24;;;;;;;1.27;0.10;;;;;;;16.38;100.00;101967.38;5011724;28;20128;-51
2022/08/07 07:53:51;;;;;;;0.52;0.13;;;;;;;16.60;100.00;101970.88;5022302;28;20033;-53
2022/08/07 07:56:18;;;;;;;0.00;0.00;;;;;;;16.75;100.00;101965.38;5025066;28;20112;-49
2022/08/07 07:58:44;;;;;;;3.83;0.63;;;;;;;16.90;100.00;101976.03;5021161;28;20129;-51
2022/08/07 08:01:11;;;;;;;0.08;0.08;;;;;;;17.05;100.00;101976.75;5024430;28;20116;-54
2022/08/07 08:03:39;;;;;;;2.67;0.10;;;;;;;17.14;100.00;101967.53;5015503;28;20591;-51
2022/08/07 08:06:05;;;;;;;0.32;0.00;;;;;;;17.32;100.00;101966.16;5014059;28;20061;-54
2022/08/07 08:08:34;;;;;;;0.73;0.35;;;;;;;17.47;100.00;101969.50;5016623;28;20100;-50
2022/08/07 08:11:00;;;;;;;3.30;0.20;;;;;;;17.57;100.00;101963.78;5021022;28;20760;-51
2022/08/07 08:13:27;;;;;;;1.35;0.00;;;;;;;17.64;100.00;101967.31;5019151;28;20207;-50
2022/08/07 08:15:55;;;;;;;2.38;0.10;;;;;;;17.75;100.00;101961.34;5009522;28;20042;-53
2022/08/07 08:18:23;;;;;;;0.52;0.10;;;;;;;17.95;100.00;101953.38;5018457;28;20108;-51
2022/08/07 08:20:49;;;;;;;0.08;0.00;;;;;;;18.12;100.00;101950.28;5022915;28;20030;-51
2022/08/07 08:28:52;;;;;;;0.00;0.00;;;;;;;18.48;100.00;101937.31;5019828;28;20060;-53
2022/08/07 08:31:34;;;;;;;3.38;0.03;;;;;;;18.64;100.00;101943.25;5023296;28;20029;-57
2022/08/07 08:34:04;;;;;;;0.95;0.10;;;;;;;18.61;100.00;101940.97;5022835;28;20113;-51
2022/08/07 08:36:33;;;;;;;0.55;0.17;;;;;;;18.76;100.00;101938.09;5018281;28;20132;-55
2022/08/07 08:39:01;;;;;;;0.20;0.20;;;;;;;18.79;100.00;101945.75;5019121;28;20034;-57
2022/08/07 08:41:38;;;;;;;0.90;0.10;;;;;;;18.80;100.00;101937.47;5025503;28;20569;-55
2022/08/07 08:44:34;;;;;;;0.75;0.10;;;;;;;18.79;100.00;101932.31;5029332;28;20461;-56
2022/08/07 08:47:26;;;;;;;0.90;0.10;;;;;;;18.88;100.00;101934.56;5020471;28;20323;-54
2022/08/07 08:50:31;;;;;;;0.85;0.28;;;;;;;19.07;100.00;101934.72;5018405;28;20040;-56
2022/08/07 08:53:18;;;;;;;1.58;0.28;;;;;;;19.04;100.00;101929.75;5014498;28;20493;-55
2022/08/07 08:55:50;;;;;;;2.00;0.30;;;;;;;19.09;100.00;101929.94;5027761;28;20072;-51
2022/08/07 08:58:15;;;;;;;0.70;0.03;;;;;;;19.29;100.00;101914.56;5021839;28;20034;-53
2022/08/07 09:00:47;;;;;;;1.70;0.10;;;;;;;19.52;100.00;101918.59;5026977;28;20029;-55
2022/08/07 09:03:32;;;;;;;0.30;0.10;;;;;;;19.73;100.00;101917.47;5027488;28;20040;-54
2022/08/07 09:06:05;;;;;;;0.63;0.00;;;;;;;19.84;100.00;101919.44;5022959;28;20498;-52
2022/08/07 09:08:45;;;;;;;2.90;0.20;;;;;;;20.01;100.00;101915.19;5023441;28;20083;-56
2022/08/07 09:11:23;;;;;;;0.40;0.03;;;;;;;20.14;100.00;101913.44;5018480;28;20124;-55
2022/08/07 09:14:02;;;;;;;0.65;0.10;;;;;;;20.14;100.00;101922.34;5020064;28;20032;-54
2022/08/07 09:16:40;;;;;;;1.17;0.70;;;;;;;20.25;100.00;101915.41;5017525;28;20505;-53
2022/08/07 09:19:23;;;;;;;0.20;0.20;;;;;;;20.55;100.00;101907.50;5023100;28;20357;-56
2022/08/07 09:22:10;;;;;;;3.60;0.10;;;;;;;20.79;100.00;101913.88;5029063;28;20086;-56
2022/08/07 09:24:39;;;;;;;1.00;0.15;;;;;;;20.87;100.00;101910.88;5015983;28;20025;-56
2022/08/07 09:27:29;;;;;;;0.20;0.20;;;;;;;20.88;100.00;101900.91;5022748;28;20038;-55
2022/08/07 09:29:56;;;;;;;1.27;0.77;;;;;;;20.97;100.00;101896.03;5016403;28;20036;-57
2022/08/07 09:32:45;;;;;;;0.80;0.20;;;;;;;20.87;100.00;101893.88;5018527;28;20030;-56
2022/08/07 09:35:20;;;;;;;0.77;0.10;;;;;;;21.03;100.00;101892.44;5023747;28;20037;-56
2022/08/07 09:37:53;;;;;;;1.25;0.10;;;;;;;21.16;100.00;101894.97;5027393;28;20025;-55
2022/08/07 09:40:36;;;;;;;0.20;0.13;;;;;;;21.50;100.00;101890.81;5024419;28;20057;-53
2022/08/07 09:43:20;;;;;;;1.33;0.00;;;;;;;21.55;100.00;101890.09;5020317;28;20033;-56
2022/08/07 09:46:09;;;;;;;2.17;0.10;;;;;;;21.78;100.00;101882.06;5028057;28;20080;-52
2022/08/07 09:48:55;;;;;;;2.40;0.17;;;;;;;21.89;100.00;101877.75;5023501;28;20045;-53
2022/08/07 09:51:38;;;;;;;1.45;0.20;;;;;;;22.18;100.00;101873.31;5026983;28;20040;-48
2022/08/07 09:54:06;;;;;;;1.25;0.40;;;;;;;22.38;100.00;101867.59;5024097;28;20047;-52
2022/08/07 09:56:56;;;;;;;5.82;0.20;;;;;;;22.00;96.45;101876.13;5014520;28;20026;-54
2022/08/07 09:59:32;;;;;;;10.93;0.77;;;;;;;21.87;100.00;101879.03;5022790;28;20037;-56
2022/08/07 10:02:31;;;;;;;1.23;0.20;;;;;;;22.33;97.81;101872.03;5012234;28;20036;-57
2022/08/07 10:05:18;;;;;;;3.83;0.65;;;;;;;22.34;98.27;101871.81;5018472;28;20040;-54
2022/08/07 10:08:01;;;;;;;0.98;0.20;;;;;;;22.07;94.46;101876.00;5025801;28;20049;-55
2022/08/07 10:10:29;;;;;;;0.22;0.08;;;;;;;22.00;97.93;101866.13;5020622;28;20552;-55
2022/08/07 10:13:25;;;;;;;0.45;0.08;;;;;;;22.05;91.77;101865.44;5025952;28;20040;-53
2022/08/07 10:16:14;;;;;;;0.57;0.10;;;;;;;21.97;92.96;101858.50;5025466;28;20040;-56
2022/08/07 10:19:07;;;;;;;1.52;0.20;;;;;;;21.96;88.85;101862.25;5020519;28;20642;-55
2022/08/07 10:21:55;;;;;;;0.75;0.57;;;;;;;21.87;88.30;101855.56;5027009;28;20370;-51
2022/08/07 10:24:39;;;;;;;0.52;0.28;;;;;;;21.73;89.05;101852.22;5023750;28;20029;-55
2022/08/07 10:27:41;;;;;;;3.90;0.20;;;;;;;21.80;88.64;101862.94;5021829;28;20447;-48
2022/08/07 10:30:10;;;;;;;1.45;0.38;;;;;;;22.18;90.96;101857.09;5021993;28;20033;-54
2022/08/07 10:33:05;;;;;;;0.85;0.28;;;;;;;22.31;89.67;101852.56;5032038;28;20052;-57
2022/08/07 10:36:09;;;;;;;0.32;0.32;;;;;;;22.78;85.40;101857.88;5026074;28;20371;-57
2022/08/07 10:38:52;;;;;;;4.10;0.22;;;;;;;22.67;84.91;101851.44;5028369;28;20105;-57
2022/08/07 10:41:30;;;;;;;0.60;0.32;;;;;;;22.65;87.03;101850.84;5022248;28;20021;-57
2022/08/07 10:44:04;;;;;;;0.57;0.20;;;;;;;22.76;88.50;101847.28;5020366;28;20439;-52
2022/08/07 10:46:40;;;;;;;1.27;0.45;;;;;;;22.59;86.25;101846.41;5019454;28;20040;-56
2022/08/07 10:49:14;;;;;;;0.30;0.10;;;;;;;22.38;86.10;101840.56;5018813;28;20102;-51
2022/08/07 10:52:04;;;;;;;1.95;0.08;;;;;;;22.84;84.67;101841.50;5018340;28;20034;-53
2022/08/07 10:54:55;;;;;;;0.85;0.22;;;;;;;22.83;83.55;101830.94;5015549;28;20116;-53
2022/08/07 10:57:30;;;;;;;1.27;0.25;;;;;;;23.04;85.32;101833.00;5016362;28;20056;-54
2022/08/07 11:00:06;;;;;;;0.40;0.08;;;;;;;23.37;83.39;101828.72;5021314;28;20061;-55
2022/08/07 11:02:32;;;;;;;1.65;0.30;;;;;;;23.59;83.41;101836.94;5022683;28;20053;-52
2022/08/07 11:05:17;;;;;;;0.80;0.10;;;;;;;23.34;82.32;101825.66;5021031;28;20026;-49
2022/08/07 11:08:20;;;;;;;0.38;0.00;;;;;;;23.64;82.55;101828.09;5020741;28;20466;-55
2022/08/07 11:10:55;;;;;;;0.10;0.10;;;;;;;23.49;81.51;101834.06;5021745;28;20053;-56
2022/08/07 11:13:35;;;;;;;0.17;0.15;;;;;;;23.49;80.42;101829.50;5019323;28;20492;-52
2022/08/07 11:16:08;;;;;;;2.10;0.30;;;;;;;23.49;80.69;101817.81;5016198;28;20209;-54
2022/08/07 11:18:53;;;;;;;0.50;0.17;;;;;;;23.71;76.69;101826.84;5010938;28;20059;-50
2022/08/07 11:21:34;;;;;;;0.98;0.32;;;;;;;24.15;74.89;101820.78;5011922;28;20048;-54
2022/08/07 11:23:59;;;;;;;0.75;0.20;;;;;;;24.32;73.96;101820.75;5015469;28;20172;-52
2022/08/07 11:26:27;;;;;;;0.20;0.10;;;;;;;23.66;74.88;101813.25;5020940;28;20061;-55
2022/08/07 11:29:01;;;;;;;1.48;0.10;;;;;;;23.33;76.49;101815.91;5014872;28;20112;-56
2022/08/07 11:31:50;;;;;;;0.40;0.10;;;;;;;23.76;74.39;101804.50;5025722;28;20033;-52
2022/08/07 11:34:49;;;;;;;1.17;0.00;;;;;;;24.06;76.13;101797.88;5018410;28;20048;-51
2022/08/07 11:37:45;;;;;;;2.45;0.00;;;;;;;24.57;74.38;101790.44;5026269;28;20037;-52
2022/08/07 11:40:48;;;;;;;1.25;0.00;;;;;;;24.83;73.34;101783.41;5013632;28;20480;-54
2022/08/07 11:43:22;;;;;;;1.92;0.22;;;;;;;25.11;75.19;101784.25;5024925;28;20033;-56
2022/08/07 11:46:24;;;;;;;1.63;0.20;;;;;;;24.97;71.43;101781.94;5025765;28;20037;-51
2022/08/07 11:49:15;;;;;;;0.77;0.20;;;;;;;24.41;71.65;101791.31;5033474;28;20226;-52
2022/08/07 11:51:56;;;;;;;0.30;0.00;;;;;;;24.34;74.21;101784.19;5027890;28;20120;-54